Time,TemperatureF,DewpointF,PressureIn,WindDirection,WindDirectionDegrees,WindSpeedMPH,WindSpeedGustMPH,Humidity,HourlyPrecipIn,Conditions,Clouds,dailyrainin,SoftwareType,DateUTC
2013-08-14 07:10:00,71.3,40.7,30.22,WNW,294,0.0,9.0,33,0.00,,,0.00,Wunderground v.1.15,2013-08-14 14:10:00,
2013-08-14 07:20:00,75.4,40.9,30.23,North,11,0.0,0.0,29,0.00,,,0.00,Wunderground v.1.15,2013-08-14 14:20:00,
2013-08-14 07:30:00,76.6,39.1,30.22,North,351,1.0,1.0,26,0.00,,,0.00,Wunderground v.1.15,2013-08-14 14:30:00,
2013-08-14 07:40:00,78.3,38.5,30.22,North,354,1.0,2.0,24,0.00,,,0.00,Wunderground v.1.15,2013-08-14 14:40:00,
2013-08-14 07:50:00,79.3,38.3,30.23,NNE,27,2.0,3.0,23,0.00,,,0.00,Wunderground v.1.15,2013-08-14 14:50:00,
2013-08-14 08:00:00,78.7,38.9,30.23,NE,41,3.0,3.0,24,0.00,,,0.00,Wunderground v.1.15,2013-08-14 15:00:00,
2013-08-14 08:10:00,77.8,39.1,30.23,NNE,20,2.0,2.0,25,0.00,,,0.00,Wunderground v.1.15,2013-08-14 15:10:00,
2013-08-14 08:20:00,78.4,38.6,30.24,NNE,19,2.0,4.0,24,0.00,,,0.00,Wunderground v.1.15,2013-08-14 15:20:00,
2013-08-14 08:30:00,78.2,39.5,30.23,NNE,33,3.0,3.0,25,0.00,,,0.00,Wunderground v.1.15,2013-08-14 15:30:00,
2013-08-14 08:40:00,79.9,39.9,30.23,NE,44,3.0,3.0,24,0.00,,,0.00,Wunderground v.1.15,2013-08-14 15:40:00,
2013-08-14 08:50:00,81.1,40.9,30.24,North,4,2.0,3.0,24,0.00,,,0.00,Wunderground v.1.15,2013-08-14 15:50:00,
2013-08-14 09:00:00,82.9,40.1,30.24,NNE,19,2.0,2.0,22,0.00,,,0.00,Wunderground v.1.15,2013-08-14 16:00:00,
2013-08-14 09:10:00,83.6,39.5,30.24,NNE,28,3.0,3.0,21,0.00,,,0.00,Wunderground v.1.15,2013-08-14 16:10:00,
2013-08-14 09:20:00,85.2,40.8,30.24,NNW,347,1.0,5.0,21,0.00,,,0.00,Wunderground v.1.15,2013-08-14 16:20:00,
2013-08-14 09:30:00,85.5,41.1,30.24,NNE,16,2.0,3.0,21,0.00,,,0.00,Wunderground v.1.15,2013-08-14 16:30:00,
2013-08-14 09:40:00,85.1,40.8,30.24,North,8,2.0,2.0,21,0.00,,,0.00,Wunderground v.1.15,2013-08-14 16:40:00,
2013-08-14 09:50:00,86.1,40.3,30.24,NE,36,2.0,4.0,20,0.00,,,0.00,Wunderground v.1.15,2013-08-14 16:50:00,
2013-08-14 10:00:00,86.2,41.7,30.24,NE,48,2.0,2.0,21,0.00,,,0.00,Wunderground v.1.15,2013-08-14 17:00:00,
2013-08-14 10:10:00,87.3,40.0,30.24,North,8,2.0,5.0,19,0.00,,,0.00,Wunderground v.1.15,2013-08-14 17:10:00,
2013-08-14 10:20:00,87.2,39.9,30.24,NNW,336,3.0,3.0,19,0.00,,,0.00,Wunderground v.1.15,2013-08-14 17:20:00,
2013-08-14 10:30:00,88.4,40.9,30.23,NNW,335,2.0,2.0,19,0.00,,,0.00,Wunderground v.1.15,2013-08-14 17:30:00,
2013-08-14 10:40:00,89.4,40.3,30.23,North,4,2.0,2.0,18,0.00,,,0.00,Wunderground v.1.15,2013-08-14 17:40:00,
2013-08-14 10:50:00,90.4,41.1,30.23,ENE,62,3.0,5.0,18,0.00,,,0.00,Wunderground v.1.15,2013-08-14 17:50:00,
2013-08-14 11:00:00,91.3,38.8,30.22,NNE,20,2.0,2.0,16,0.00,,,0.00,Wunderground v.1.15,2013-08-14 18:00:00,
2013-08-14 11:10:00,92.0,39.4,30.22,North,349,3.0,3.0,16,0.00,,,0.00,Wunderground v.1.15,2013-08-14 18:10:00,
2013-08-14 11:20:00,93.6,39.0,30.22,SSE,162,2.0,2.0,15,0.00,,,0.00,Wunderground v.1.15,2013-08-14 18:20:00,
2013-08-14 11:30:00,94.4,39.6,30.21,NE,35,2.0,2.0,15,0.00,,,0.00,Wunderground v.1.15,2013-08-14 18:30:00,
2013-08-14 11:40:00,95.8,39.0,30.21,NNE,21,3.0,3.0,14,0.00,,,0.00,Wunderground v.1.15,2013-08-14 18:40:00,
2013-08-14 11:50:00,96.6,39.6,30.21,North,353,3.0,5.0,14,0.00,,,0.00,Wunderground v.1.15,2013-08-14 18:50:00,
2013-08-14 12:00:00,95.7,38.9,30.20,NW,321,4.0,4.0,14,0.00,,,0.00,Wunderground v.1.15,2013-08-14 19:00:00,
2013-08-14 12:20:00,96.9,39.8,30.19,SE,125,3.0,3.0,14,0.00,,,0.00,Wunderground v.1.15,2013-08-14 19:20:00,
2013-08-14 12:31:00,96.7,41.4,30.19,East,88,2.0,2.0,15,0.00,,,0.00,Wunderground v.1.15,2013-08-14 19:31:00,
2013-08-14 12:40:00,97.1,41.8,30.19,ESE,119,2.0,2.0,15,0.00,,,0.00,Wunderground v.1.15,2013-08-14 19:40:00,
2013-08-14 12:50:00,97.6,40.4,30.18,SE,145,1.0,2.0,14,0.00,,,0.00,Wunderground v.1.15,2013-08-14 19:50:00,
2013-08-14 13:00:00,100.1,42.3,30.18,SE,139,2.0,2.0,14,0.00,,,0.00,Wunderground v.1.15,2013-08-14 20:00:00,
2013-08-14 13:10:00,100.8,42.9,30.17,ESE,113,2.0,2.0,14,0.00,,,0.00,Wunderground v.1.15,2013-08-14 20:10:00,
2013-08-14 13:30:00,101.4,43.4,30.16,SE,127,4.0,4.0,14,0.00,,,0.00,Wunderground v.1.15,2013-08-14 20:30:00,
2013-08-14 13:40:00,101.5,43.4,30.16,SSW,195,4.0,5.0,14,0.00,,,0.00,Wunderground v.1.15,2013-08-14 20:40:00,
2013-08-14 13:50:00,100.2,42.4,30.16,SSE,165,6.0,6.0,14,0.00,,,0.00,Wunderground v.1.15,2013-08-14 20:50:00,
2013-08-14 14:00:00,102.0,41.9,30.15,SE,128,5.0,5.0,13,0.00,,,0.00,Wunderground v.1.15,2013-08-14 21:00:00,
2013-08-14 14:10:00,100.0,42.3,30.15,SE,146,8.0,9.0,14,0.00,,,0.00,Wunderground v.1.15,2013-08-14 21:10:00,
2013-08-14 14:20:00,98.6,43.0,30.15,South,191,4.0,4.0,15,0.00,,,0.00,Wunderground v.1.15,2013-08-14 21:20:00,
2013-08-14 14:30:00,99.0,43.3,30.15,SSW,195,6.0,6.0,15,0.00,,,0.00,Wunderground v.1.15,2013-08-14 21:30:00,
2013-08-14 14:40:00,98.5,42.9,30.15,SSW,201,6.0,6.0,15,0.00,,,0.00,Wunderground v.1.15,2013-08-14 21:40:00,
2013-08-14 14:50:00,97.8,42.3,30.15,SSE,155,6.0,6.0,15,0.00,,,0.00,Wunderground v.1.15,2013-08-14 21:50:00,
2013-08-14 15:00:00,96.9,43.3,30.14,SW,219,6.0,6.0,16,0.00,,,0.00,Wunderground v.1.15,2013-08-14 22:00:00,
2013-08-14 15:10:00,96.9,43.3,30.14,SW,220,7.0,7.0,16,0.00,,,0.00,Wunderground v.1.15,2013-08-14 22:10:00,
2013-08-14 15:20:00,97.6,42.2,30.14,SSW,212,7.0,8.0,15,0.00,,,0.00,Wunderground v.1.15,2013-08-14 22:20:00,
2013-08-14 15:30:00,97.2,43.5,30.14,SE,146,4.0,4.0,16,0.00,,,0.00,Wunderground v.1.15,2013-08-14 22:30:00,
2013-08-14 15:40:00,99.0,45.0,30.13,SSE,161,2.0,5.0,16,0.00,,,0.00,Wunderground v.1.15,2013-08-14 22:40:00,
2013-08-14 15:50:00,100.1,44.1,30.13,NE,51,2.0,4.0,15,0.00,,,0.00,Wunderground v.1.15,2013-08-14 22:50:00,
2013-08-14 16:00:00,100.1,45.8,30.13,NNE,23,4.0,4.0,16,0.00,,,0.00,Wunderground v.1.15,2013-08-14 23:00:00,
2013-08-14 16:10:00,100.2,45.9,30.12,SW,221,4.0,5.0,16,0.00,,,0.00,Wunderground v.1.15,2013-08-14 23:10:00,
2013-08-14 16:20:00,100.4,44.4,30.12,South,177,3.0,3.0,15,0.00,,,0.00,Wunderground v.1.15,2013-08-14 23:20:00,
2013-08-14 16:30:00,97.5,43.8,30.12,SSE,168,7.0,7.0,16,0.00,,,0.00,Wunderground v.1.15,2013-08-14 23:30:00,
2013-08-14 16:40:00,96.8,43.2,30.11,South,170,4.0,4.0,16,0.00,,,0.00,Wunderground v.1.15,2013-08-14 23:40:00,
2013-08-14 16:50:00,97.1,45.0,30.11,East,85,2.0,3.0,17,0.00,,,0.00,Wunderground v.1.15,2013-08-14 23:50:00,
2013-08-14 17:00:00,97.4,45.3,30.11,WSW,247,3.0,3.0,17,0.00,,,0.00,Wunderground v.1.15,2013-08-15 00:00:00,
2013-08-14 17:10:00,98.9,44.9,30.10,SE,141,1.0,1.0,16,0.00,,,0.00,Wunderground v.1.15,2013-08-15 00:10:00,
2013-08-14 17:20:00,98.6,44.6,30.10,ESE,120,2.0,2.0,16,0.00,,,0.00,Wunderground v.1.15,2013-08-15 00:20:00,
2013-08-14 17:30:00,98.0,44.2,30.10,ENE,77,2.0,5.0,16,0.00,,,0.00,Wunderground v.1.15,2013-08-15 00:30:00,
2013-08-14 17:40:00,97.4,43.7,30.09,ESE,110,2.0,2.0,16,0.00,,,0.00,Wunderground v.1.15,2013-08-15 00:40:00,
2013-08-14 17:50:00,96.8,44.8,30.09,ESE,118,2.0,2.0,17,0.00,,,0.00,Wunderground v.1.15,2013-08-15 00:50:00,
2013-08-14 18:00:00,96.4,44.5,30.09,SE,131,1.0,1.0,17,0.00,,,0.00,Wunderground v.1.15,2013-08-15 01:00:00,
2013-08-14 18:10:00,96.4,44.5,30.09,SE,136,1.0,2.0,17,0.00,,,0.00,Wunderground v.1.15,2013-08-15 01:10:00,
2013-08-14 18:20:00,96.6,44.6,30.10,East,97,1.0,1.0,17,0.00,,,0.00,Wunderground v.1.15,2013-08-15 01:20:00,
2013-08-14 18:30:00,95.8,44.0,30.10,East,95,0.0,1.0,17,0.00,,,0.00,Wunderground v.1.15,2013-08-15 01:30:00,
2013-08-14 18:40:00,94.2,44.2,30.10,East,87,0.0,0.0,18,0.00,,,0.00,Wunderground v.1.15,2013-08-15 01:40:00,
2013-08-14 18:50:00,92.4,44.2,30.10,East,87,0.0,0.0,19,0.00,,,0.00,Wunderground v.1.15,2013-08-15 01:50:00,
2013-08-14 19:00:00,91.1,44.4,30.11,East,87,0.0,0.0,20,0.00,,,0.00,Wunderground v.1.15,2013-08-15 02:00:00,
2013-08-14 19:10:00,88.2,44.5,30.11,NNW,330,0.0,0.0,22,0.00,,,0.00,Wunderground v.1.15,2013-08-15 02:10:00,
2013-08-14 19:20:00,86.4,44.2,30.11,NW,304,1.0,2.0,23,0.00,,,0.00,Wunderground v.1.15,2013-08-15 02:20:00,
2013-08-14 19:30:00,85.7,44.7,30.11,WNW,303,2.0,2.0,24,0.00,,,0.00,Wunderground v.1.15,2013-08-15 02:30:00,
2013-08-14 19:40:00,85.0,44.2,30.11,NW,311,2.0,2.0,24,0.00,,,0.00,Wunderground v.1.15,2013-08-15 02:40:00,
2013-08-14 19:50:00,84.1,44.5,30.12,WNW,302,2.0,2.0,25,0.00,,,0.00,Wunderground v.1.15,2013-08-15 02:50:00,
2013-08-14 20:00:00,84.3,44.6,30.12,NW,314,3.0,5.0,25,0.00,,,0.00,Wunderground v.1.15,2013-08-15 03:00:00,
2013-08-14 20:10:00,84.3,43.6,30.12,NW,322,4.0,4.0,24,0.00,,,0.00,Wunderground v.1.15,2013-08-15 03:10:00,
2013-08-14 20:20:00,83.7,44.1,30.13,WNW,295,3.0,3.0,25,0.00,,,0.00,Wunderground v.1.15,2013-08-15 03:20:00,
2013-08-14 20:30:00,83.7,44.1,30.13,NW,307,2.0,3.0,25,0.00,,,0.00,Wunderground v.1.15,2013-08-15 03:30:00,
2013-08-14 20:40:00,84.6,43.8,30.13,WNW,295,3.0,3.0,24,0.00,,,0.00,Wunderground v.1.15,2013-08-15 03:40:00,
2013-08-14 20:50:00,85.1,43.1,30.14,WNW,303,3.0,3.0,23,0.00,,,0.00,Wunderground v.1.15,2013-08-15 03:50:00,
2013-08-14 21:00:00,86.2,42.9,30.14,WNW,302,4.0,4.0,22,0.00,,,0.00,Wunderground v.1.15,2013-08-15 04:00:00,